Terminal Aerodrome Forecast
Issued by NWS Cleveland, OH

Home | Current Version | Previous Version | Text Only | Print | Product List | Glossary Off
Versions: 1 2 3 4 5 6 7 8 9 10 11 12 13 14 15

000
FTUS41 KCLE 282315 AAA
TAFCAK
TAF AMD
KCAK 282315Z 2823/2918 26012G20KT P6SM VCSH SCT035 BKN250
     FM290000 21005KT P6SM BKN250
     FM290900 VRB03KT 4SM BR BKN250
     FM291300 21006KT P6SM OVC250=

USA.gov is the U.S. government's official web portal to all federal, state and local government web resources and services.